createdAt,value
2023-05-02T00:01:17.432Z,99249.94
2023-05-02T00:03:44.988Z,99246.13
2023-05-02T00:06:13.728Z,99246.31
2023-05-02T00:08:40.947Z,99251.06
2023-05-02T00:11:08.099Z,99251.81
2023-05-02T00:13:35.023Z,99261.41
2023-05-02T00:16:02.010Z,99250.50
2023-05-02T00:18:28.941Z,99257.97
2023-05-02T00:20:57.017Z,99260.91
2023-05-02T00:23:25.299Z,99254.56
2023-05-02T00:25:52.272Z,99262.19
2023-05-02T00:28:19.306Z,99266.94
2023-05-02T00:30:47.318Z,99264.53
2023-05-02T00:33:15.305Z,99264.72
2023-05-02T00:35:42.684Z,99259.34
2023-05-02T00:38:09.797Z,99267.25
2023-05-02T00:40:45.920Z,99263.44
2023-05-02T00:43:13.065Z,99259.28
2023-05-02T00:45:43.669Z,99254.72
2023-05-02T00:48:11.353Z,99264.38
2023-05-02T00:50:40.725Z,99256.06
2023-05-02T00:53:08.230Z,99259.63
2023-05-02T00:55:36.140Z,99253.69
2023-05-02T00:58:06.885Z,99260.78
2023-05-02T01:00:44.396Z,99255.03
2023-05-02T01:03:19.552Z,99258.13
2023-05-02T01:05:56.210Z,99264.44
2023-05-02T01:08:33.903Z,99259.66
2023-05-02T01:11:06.976Z,99262.78
2023-05-02T01:13:37.121Z,99264.13
2023-05-02T01:16:06.559Z,99258.00
2023-05-02T01:18:36.904Z,99256.59
2023-05-02T01:21:08.432Z,99261.47
2023-05-02T01:23:43.360Z,99263.00
2023-05-02T01:26:29.976Z,99254.84
2023-05-02T01:29:02.607Z,99259.94
2023-05-02T01:31:34.556Z,99259.06
2023-05-02T01:34:04.404Z,99255.69
2023-05-02T01:36:33.338Z,99262.16
2023-05-02T01:39:02.801Z,99262.28
2023-05-02T01:41:31.663Z,99250.59
2023-05-02T01:44:02.041Z,99253.97
2023-05-02T01:46:33.872Z,99250.00
2023-05-02T01:49:03.614Z,99256.06
2023-05-02T01:51:33.159Z,99263.97
2023-05-02T01:54:02.505Z,99256.63
2023-05-02T01:56:32.805Z,99258.75
2023-05-02T01:59:02.532Z,99261.06
2023-05-02T02:01:31.145Z,99270.09
2023-05-02T02:04:00.678Z,99264.34
2023-05-02T02:06:28.040Z,99263.88
2023-05-02T02:08:55.281Z,99256.81
2023-05-02T02:11:27.267Z,99262.13
2023-05-02T02:14:04.356Z,99269.19
2023-05-02T02:16:33.836Z,99266.38
2023-05-02T02:19:06.799Z,99271.03
2023-05-02T02:21:34.845Z,99274.16
2023-05-02T02:24:04.123Z,99269.19
2023-05-02T02:26:31.269Z,99269.72
2023-05-02T02:28:58.280Z,99269.44
2023-05-02T02:31:31.054Z,99263.66
2023-05-02T02:33:58.381Z,99273.25
2023-05-02T02:36:31.673Z,99280.13
2023-05-02T02:39:09.844Z,99278.72
2023-05-02T02:41:42.429Z,99274.91
2023-05-02T02:44:23.025Z,99281.19
2023-05-02T02:47:01.682Z,99289.38
2023-05-02T02:49:39.508Z,99278.50
2023-05-02T02:52:12.292Z,99287.34
2023-05-02T02:54:45.800Z,99288.50
2023-05-02T02:57:18.795Z,99286.91
2023-05-02T02:59:52.526Z,99287.06
2023-05-02T03:02:27.370Z,99289.19
2023-05-02T03:04:56.059Z,99288.75
2023-05-02T03:07:23.615Z,99291.97
2023-05-02T03:09:51.134Z,99283.50
2023-05-02T03:12:22.788Z,99293.31
2023-05-02T03:14:51.164Z,99293.63
2023-05-02T03:17:18.528Z,99303.41
2023-05-02T03:19:47.968Z,99305.00
2023-05-02T03:22:15.611Z,99296.53
2023-05-02T03:24:42.581Z,99301.81
2023-05-02T03:27:12.200Z,99302.00
2023-05-02T03:29:41.709Z,99300.84
2023-05-02T03:32:10.850Z,99302.63
2023-05-02T03:34:39.919Z,99305.78
2023-05-02T03:37:09.168Z,99314.09
2023-05-02T03:39:36.168Z,99313.28
2023-05-02T03:42:03.350Z,99323.34
2023-05-02T03:44:30.495Z,99321.44
2023-05-02T03:46:57.461Z,99324.09
2023-05-02T03:49:24.847Z,99331.84
2023-05-02T03:51:53.449Z,99328.19
2023-05-02T03:54:26.854Z,99325.06
2023-05-02T03:56:54.782Z,99334.63
2023-05-02T03:59:27.721Z,99334.91
2023-05-02T04:01:55.743Z,99333.59
2023-05-02T04:04:30.582Z,99335.09
2023-05-02T04:06:57.558Z,99334.88
2023-05-02T04:09:25.922Z,99339.56
2023-05-02T04:12:00.311Z,99339.56
2023-05-02T04:14:27.860Z,99337.69
2023-05-02T04:16:56.683Z,99342.63
2023-05-02T04:19:35.176Z,99336.53
2023-05-02T04:22:03.425Z,99344.84
2023-05-02T04:24:35.404Z,99345.81
2023-05-02T04:27:02.920Z,99331.53
2023-05-02T04:29:30.166Z,99345.63
2023-05-02T04:31:57.547Z,99335.22
2023-05-02T04:34:27.697Z,99344.94
2023-05-02T04:36:55.385Z,99349.78
2023-05-02T04:39:24.275Z,99333.03
2023-05-02T04:42:03.655Z,99330.44
2023-05-02T04:44:34.513Z,99328.97
2023-05-02T04:47:01.677Z,99326.41
2023-05-02T04:49:28.887Z,99334.84
2023-05-02T04:51:55.881Z,99340.53
2023-05-02T04:54:24.099Z,99334.50
2023-05-02T04:56:51.001Z,99338.03
2023-05-02T04:59:19.876Z,99334.16
2023-05-02T05:01:47.164Z,99345.13
2023-05-02T05:04:14.304Z,99343.88
2023-05-02T05:06:41.640Z,99343.56
2023-05-02T05:09:08.963Z,99346.78
2023-05-02T05:11:38.615Z,99340.25
2023-05-02T05:14:06.419Z,99359.66
2023-05-02T05:16:38.635Z,99347.00
2023-05-02T05:19:05.766Z,99347.81
2023-05-02T05:21:32.854Z,99352.97
2023-05-02T05:24:01.022Z,99356.50
2023-05-02T05:26:29.176Z,99353.25
2023-05-02T05:28:56.277Z,99356.53
2023-05-02T05:31:26.779Z,99347.94
2023-05-02T05:33:58.790Z,99349.41
2023-05-02T05:36:26.542Z,99351.53
2023-05-02T05:38:53.980Z,99349.63
2023-05-02T05:41:23.372Z,99351.03
2023-05-02T05:43:56.342Z,99355.63
2023-05-02T05:46:25.322Z,99354.50
2023-05-02T05:48:52.275Z,99354.72
2023-05-02T05:51:20.600Z,99350.78
2023-05-02T05:53:49.119Z,99356.00
2023-05-02T05:56:16.740Z,99368.31
2023-05-02T05:58:50.778Z,99360.28
2023-05-02T06:01:17.738Z,99361.78
2023-05-02T06:03:45.956Z,99358.88
2023-05-02T06:06:15.951Z,99350.53
2023-05-02T06:08:44.290Z,99349.47
2023-05-02T06:11:11.755Z,99351.28
2023-05-02T06:13:39.090Z,99355.53
2023-05-02T06:16:07.786Z,99354.03
2023-05-02T06:18:35.003Z,99358.72
2023-05-02T06:21:05.536Z,99350.22
2023-05-02T06:23:33.311Z,99347.00
2023-05-02T06:26:02.879Z,99351.84
2023-05-02T06:28:30.765Z,99347.41
2023-05-02T06:30:59.218Z,99334.19
2023-05-02T06:33:26.199Z,99340.22
2023-05-02T06:35:53.611Z,99345.31
2023-05-02T06:38:20.800Z,99339.25
2023-05-02T06:40:47.788Z,99329.56
2023-05-02T06:43:16.352Z,99332.41
2023-05-02T06:45:43.766Z,99338.56
2023-05-02T06:48:14.019Z,99338.22
2023-05-02T06:50:41.665Z,99341.13
2023-05-02T06:53:08.610Z,99331.53
2023-05-02T06:55:37.748Z,99340.50
2023-05-02T06:58:04.905Z,99340.31
2023-05-02T07:00:36.971Z,99335.38
2023-05-02T07:03:04.346Z,99333.53
2023-05-02T07:05:31.616Z,99337.44
2023-05-02T07:07:58.712Z,99329.34
2023-05-02T07:10:28.084Z,99325.59
2023-05-02T07:12:55.128Z,99327.59
2023-05-02T07:15:22.077Z,99316.03
2023-05-02T07:17:50.500Z,99324.88
2023-05-02T07:20:18.078Z,99325.81
2023-05-02T07:22:45.032Z,99323.53
2023-05-02T07:25:12.019Z,99319.41
2023-05-02T07:27:42.076Z,99325.72
2023-05-02T07:30:09.888Z,99327.22
2023-05-02T07:32:37.030Z,99321.25
2023-05-02T07:35:06.680Z,99327.56
2023-05-02T07:37:35.367Z,99319.31
2023-05-02T07:40:03.297Z,99325.03
2023-05-02T07:42:30.988Z,99319.84
2023-05-02T07:44:58.684Z,99324.00
2023-05-02T07:47:26.720Z,99320.47
2023-05-02T07:49:54.449Z,99319.34
2023-05-02T07:52:26.565Z,99317.78
2023-05-02T07:54:53.681Z,99317.94
2023-05-02T07:57:20.735Z,99318.13
2023-05-02T07:59:48.034Z,99326.03
2023-05-02T08:02:17.589Z,99312.97
2023-05-02T08:04:44.652Z,99305.59
2023-05-02T08:07:11.611Z,99315.81
2023-05-02T08:09:40.093Z,99318.78
2023-05-02T08:12:07.339Z,99317.22
2023-05-02T08:14:34.377Z,99315.13
2023-05-02T08:17:01.515Z,99310.97
2023-05-02T08:19:31.343Z,99309.41
2023-05-02T08:21:59.547Z,99310.94
2023-05-02T08:24:26.781Z,99320.63
2023-05-02T08:26:55.301Z,99312.69
2023-05-02T08:29:23.390Z,99307.75
2023-05-02T08:31:53.441Z,99308.53
2023-05-02T08:34:23.513Z,99318.78
2023-05-02T08:36:53.073Z,99304.06
2023-05-02T08:39:20.110Z,99313.97
2023-05-02T08:41:47.147Z,99317.09
2023-05-02T08:44:15.566Z,99299.03
2023-05-02T08:46:43.588Z,99310.13
2023-05-02T08:49:11.444Z,99301.78
2023-05-02T08:51:41.332Z,99291.75
2023-05-02T08:54:10.151Z,99294.50
2023-05-02T08:56:38.443Z,99302.03
2023-05-02T08:59:07.171Z,99295.44
2023-05-02T09:01:45.945Z,99292.13
2023-05-02T09:04:13.464Z,99296.66
2023-05-02T09:06:40.541Z,99292.44
2023-05-02T09:09:08.546Z,99300.75
2023-05-02T09:11:36.366Z,99292.28
2023-05-02T09:14:14.592Z,99285.69
2023-05-02T09:16:43.437Z,99272.25
2023-05-02T09:19:10.696Z,99283.34
2023-05-02T09:21:42.186Z,99275.94
2023-05-02T09:24:19.428Z,99285.19
2023-05-02T09:26:59.178Z,99282.75
2023-05-02T09:29:28.021Z,99270.91
2023-05-02T09:31:57.170Z,99264.78
2023-05-02T09:34:24.558Z,99273.22
2023-05-02T09:36:54.242Z,99275.03
2023-05-02T09:39:25.439Z,99274.00
2023-05-02T09:41:53.300Z,99260.56
2023-05-02T09:44:22.944Z,99264.50
2023-05-02T09:46:51.867Z,99271.09
2023-05-02T09:49:38.654Z,99256.84
2023-05-02T09:52:11.009Z,99264.78
2023-05-02T09:54:38.021Z,99256.81
2023-05-02T09:57:08.191Z,99256.78
2023-05-02T09:59:35.178Z,99260.06
2023-05-02T10:02:03.976Z,99262.41
2023-05-02T10:04:33.446Z,99264.75
2023-05-02T10:07:03.528Z,99248.44
2023-05-02T10:09:34.262Z,99249.50
2023-05-02T10:12:08.305Z,99245.56
2023-05-02T10:14:39.927Z,99253.13
2023-05-02T10:17:13.239Z,99240.81
2023-05-02T10:19:52.041Z,99254.28
2023-05-02T10:22:19.494Z,99238.84
2023-05-02T10:24:48.599Z,99226.97
2023-05-02T10:27:19.005Z,99231.53
2023-05-02T10:29:51.583Z,99228.53
2023-05-02T10:32:19.439Z,99238.41
2023-05-02T10:34:50.188Z,99240.63
2023-05-02T10:37:18.549Z,99228.13
2023-05-02T10:39:45.814Z,99232.13
2023-05-02T10:42:14.376Z,99223.00
2023-05-02T10:44:41.713Z,99226.84
2023-05-02T10:47:21.787Z,99228.00
2023-05-02T10:49:55.422Z,99229.72
2023-05-02T10:52:30.705Z,99232.97
2023-05-02T10:55:20.983Z,99250.56
2023-05-02T10:58:22.516Z,99232.50
2023-05-02T11:00:49.905Z,99238.31
2023-05-02T11:03:55.626Z,99231.91
2023-05-02T11:06:24.417Z,99229.25
2023-05-02T11:08:51.628Z,99224.81
2023-05-02T11:11:41.567Z,99221.41
2023-05-02T11:14:08.833Z,99228.72
2023-05-02T11:17:06.461Z,99217.25
2023-05-02T11:20:07.550Z,99232.53
2023-05-02T11:22:35.893Z,99216.84
2023-05-02T11:25:03.680Z,99221.03
2023-05-02T11:27:41.131Z,99217.25
2023-05-02T11:30:09.780Z,99220.88
2023-05-02T11:33:12.578Z,99214.53
2023-05-02T11:35:42.983Z,99210.59
2023-05-02T11:38:13.895Z,99215.06
2023-05-02T11:40:41.364Z,99207.47
2023-05-02T11:43:15.617Z,99200.81
2023-05-02T11:45:43.054Z,99209.34
2023-05-02T11:48:13.951Z,99196.69
2023-05-02T11:50:49.624Z,99202.13
2023-05-02T11:53:19.945Z,99190.81
2023-05-02T11:55:48.512Z,99189.38
2023-05-02T11:58:17.229Z,99199.41
2023-05-02T12:00:46.934Z,99205.72
2023-05-02T12:03:28.391Z,99183.34
2023-05-02T12:05:56.345Z,99183.56
2023-05-02T12:08:27.437Z,99180.28
2023-05-02T12:10:55.899Z,99174.38
2023-05-02T12:13:24.742Z,99185.28
2023-05-02T12:15:53.600Z,99174.25
2023-05-02T12:18:28.698Z,99176.91
2023-05-02T12:20:56.970Z,99183.66
2023-05-02T12:23:26.889Z,99162.91
2023-05-02T12:25:54.160Z,99168.81
2023-05-02T12:28:23.312Z,99162.34
2023-05-02T12:30:51.347Z,99158.94
2023-05-02T12:33:19.493Z,99159.91
2023-05-02T12:35:47.842Z,99164.31
2023-05-02T12:38:16.484Z,99153.72
2023-05-02T12:40:50.102Z,99155.22
2023-05-02T12:43:17.499Z,99150.34
2023-05-02T12:45:44.625Z,99142.75
2023-05-02T12:48:23.163Z,99136.97
2023-05-02T12:50:50.956Z,99156.94
2023-05-02T12:53:18.025Z,99134.94
2023-05-02T12:55:47.886Z,99149.78
2023-05-02T12:58:14.885Z,99131.41
2023-05-02T13:00:44.766Z,99136.09
2023-05-02T13:03:13.269Z,99127.53
2023-05-02T13:05:40.553Z,99128.69
2023-05-02T13:08:07.523Z,99130.50
2023-05-02T13:10:34.624Z,99134.19
2023-05-02T13:13:03.168Z,99137.22
2023-05-02T13:15:30.609Z,99126.16
2023-05-02T13:17:57.599Z,99126.56
2023-05-02T13:20:24.674Z,99123.53
2023-05-02T13:22:51.633Z,99123.81
2023-05-02T13:25:18.539Z,99125.66
2023-05-02T13:27:46.093Z,99125.47
2023-05-02T13:30:14.674Z,99126.06
2023-05-02T13:32:41.684Z,99131.47
2023-05-02T13:35:13.854Z,99114.72
2023-05-02T13:37:41.655Z,99123.03
2023-05-02T13:40:09.409Z,99128.56
2023-05-02T13:42:36.323Z,99102.28
2023-05-02T13:45:05.233Z,99108.50
2023-05-02T13:47:33.920Z,99120.22
2023-05-02T13:50:00.987Z,99114.97
2023-05-02T13:52:28.206Z,99109.28
2023-05-02T13:54:55.118Z,99095.81
2023-05-02T13:57:22.227Z,99098.88
2023-05-02T13:59:49.212Z,99097.75
2023-05-02T14:02:16.180Z,99091.69
2023-05-02T14:04:44.505Z,99092.06
2023-05-02T14:07:11.728Z,99095.91
2023-05-02T14:09:39.085Z,99090.50
2023-05-02T14:12:06.499Z,99089.53
2023-05-02T14:14:33.544Z,99110.97
2023-05-02T14:17:02.667Z,99095.34
2023-05-02T14:19:29.669Z,99100.31
2023-05-02T14:21:58.220Z,99091.69
2023-05-02T14:24:25.184Z,99095.47
2023-05-02T14:26:52.170Z,99088.84
2023-05-02T14:29:19.790Z,99091.53
2023-05-02T14:31:46.725Z,99104.06
2023-05-02T14:34:14.070Z,99101.09
2023-05-02T14:36:41.088Z,99102.88
2023-05-02T14:39:09.366Z,99106.69
2023-05-02T14:41:36.457Z,99109.41
2023-05-02T14:44:03.868Z,99103.38
2023-05-02T14:46:30.973Z,99111.50
2023-05-02T14:48:58.086Z,99112.97
2023-05-02T14:51:25.202Z,99107.28
2023-05-02T14:53:52.609Z,99109.53
2023-05-02T14:56:21.662Z,99111.88
2023-05-02T14:58:48.816Z,99105.06
2023-05-02T15:01:17.020Z,99110.91
2023-05-02T15:04:03.531Z,99107.47
2023-05-02T15:06:32.656Z,99118.19
2023-05-02T15:09:01.167Z,99115.56
2023-05-02T15:11:29.471Z,99120.03
2023-05-02T15:13:58.881Z,99122.13
2023-05-02T15:16:27.099Z,99125.81
2023-05-02T15:18:57.222Z,99118.47
2023-05-02T15:21:24.158Z,99123.53
2023-05-02T15:23:51.450Z,99137.84
2023-05-02T15:26:21.450Z,99129.56
2023-05-02T15:28:49.909Z,99134.41
2023-05-02T15:31:16.885Z,99134.72
2023-05-02T15:33:43.928Z,99125.59
2023-05-02T15:36:11.255Z,99122.50
2023-05-02T15:38:39.760Z,99138.81
2023-05-02T15:41:09.787Z,99128.44
2023-05-02T15:43:37.758Z,99120.88
2023-05-02T15:46:06.371Z,99128.72
2023-05-02T15:48:34.820Z,99119.34
2023-05-02T15:51:02.764Z,99121.22
2023-05-02T15:53:29.836Z,99128.03
2023-05-02T15:55:56.988Z,99131.75
2023-05-02T15:58:24.255Z,99119.69
2023-05-02T16:00:52.582Z,99132.78
2023-05-02T16:03:21.069Z,99128.09
2023-05-02T16:05:48.357Z,99126.25
2023-05-02T16:08:15.366Z,99126.00
2023-05-02T16:10:43.516Z,99126.50
2023-05-02T16:13:10.617Z,99141.66
2023-05-02T16:15:37.759Z,99137.97
2023-05-02T16:18:05.106Z,99137.97
2023-05-02T16:20:36.584Z,99132.72
2023-05-02T16:23:04.228Z,99135.06
2023-05-02T16:25:31.459Z,99138.94
2023-05-02T16:27:58.408Z,99139.97
2023-05-02T16:30:25.565Z,99134.66
2023-05-02T16:32:52.502Z,99138.53
2023-05-02T16:35:20.054Z,99144.00
2023-05-02T16:37:49.466Z,99146.03
2023-05-02T16:40:16.860Z,99146.75
2023-05-02T16:42:43.817Z,99145.91
2023-05-02T16:45:11.158Z,99154.47
2023-05-02T16:47:38.536Z,99156.81
2023-05-02T16:50:06.941Z,99165.38
2023-05-02T16:52:36.579Z,99166.63
2023-05-02T16:55:06.111Z,99168.16
2023-05-02T16:57:33.386Z,99162.56
2023-05-02T17:00:01.181Z,99165.88
2023-05-02T17:02:28.535Z,99170.97
2023-05-02T17:04:55.922Z,99176.63
2023-05-02T17:07:22.936Z,99169.56
2023-05-02T17:09:49.860Z,99175.50
2023-05-02T17:12:22.557Z,99180.09
2023-05-02T17:14:49.779Z,99187.53
2023-05-02T17:17:18.817Z,99191.84
2023-05-02T17:19:46.304Z,99194.88
2023-05-02T17:22:13.458Z,99198.47
2023-05-02T17:24:40.501Z,99196.28
2023-05-02T17:27:07.751Z,99194.81
2023-05-02T17:29:36.185Z,99191.09
2023-05-02T17:32:03.363Z,99191.22
2023-05-02T17:34:30.569Z,99192.91
2023-05-02T17:36:57.943Z,99194.91
2023-05-02T17:39:24.931Z,99190.41
2023-05-02T17:41:51.878Z,99194.69
2023-05-02T17:44:19.120Z,99185.97
2023-05-02T17:46:47.704Z,99192.34
2023-05-02T17:49:14.665Z,99191.19
2023-05-02T17:51:41.669Z,99193.44
2023-05-02T17:54:10.607Z,99197.72
2023-05-02T17:56:38.260Z,99196.03
2023-05-02T17:59:05.582Z,99201.69
2023-05-02T18:01:32.617Z,99213.69
2023-05-02T18:04:01.449Z,99203.25
2023-05-02T18:06:28.713Z,99197.72
2023-05-02T18:08:55.833Z,99204.63
2023-05-02T18:11:24.269Z,99198.81
2023-05-02T18:13:51.515Z,99192.66
2023-05-02T18:16:18.892Z,99195.53
2023-05-02T18:18:45.943Z,99205.03
2023-05-02T18:21:20.893Z,99204.63
2023-05-02T18:23:47.948Z,99204.06
2023-05-02T18:26:15.209Z,99217.81
2023-05-02T18:28:44.586Z,99228.56
2023-05-02T18:31:18.132Z,99233.16
2023-05-02T18:33:46.732Z,99225.06
2023-05-02T18:36:19.390Z,99237.69
2023-05-02T18:38:46.916Z,99224.63
2023-05-02T18:41:13.842Z,99237.72
2023-05-02T18:43:40.855Z,99235.38
2023-05-02T18:46:08.482Z,99246.19
2023-05-02T18:48:36.278Z,99247.53
2023-05-02T18:51:03.394Z,99252.81
2023-05-02T18:53:32.001Z,99250.34
2023-05-02T18:55:59.012Z,99264.09
2023-05-02T18:58:25.998Z,99246.75
2023-05-02T19:00:55.589Z,99256.19
2023-05-02T19:03:23.813Z,99257.13
2023-05-02T19:05:51.392Z,99269.13
2023-05-02T19:08:18.405Z,99259.00
2023-05-02T19:10:46.722Z,99259.34
2023-05-02T19:13:14.772Z,99268.34
2023-05-02T19:15:41.847Z,99265.63
2023-05-02T19:18:08.860Z,99274.09
2023-05-02T19:20:36.270Z,99264.16
2023-05-02T19:23:18.472Z,99268.78
2023-05-02T19:25:48.078Z,99264.63
2023-05-02T19:28:16.910Z,99271.25
2023-05-02T19:30:47.965Z,99270.44
2023-05-02T19:33:15.000Z,99278.63
2023-05-02T19:35:42.451Z,99279.22
2023-05-02T19:38:09.451Z,99293.75
2023-05-02T19:40:36.508Z,99290.38
2023-05-02T19:43:05.093Z,99293.53
2023-05-02T19:45:32.082Z,99300.28
2023-05-02T19:47:59.270Z,99293.31
2023-05-02T19:50:26.398Z,99301.31
2023-05-02T19:52:53.458Z,99296.34
2023-05-02T19:55:20.896Z,99301.72
2023-05-02T19:57:48.838Z,99301.72
2023-05-02T20:00:17.816Z,99304.19
2023-05-02T20:02:45.152Z,99306.63
2023-05-02T20:05:12.231Z,99307.97
2023-05-02T20:07:39.296Z,99308.25
2023-05-02T20:10:07.946Z,99299.81
2023-05-02T20:12:34.930Z,99305.31
2023-05-02T20:15:02.379Z,99308.53
2023-05-02T20:17:30.839Z,99302.78
2023-05-02T20:19:57.847Z,99295.31
2023-05-02T20:22:24.892Z,99305.16
2023-05-02T20:24:51.841Z,99291.91
2023-05-02T20:27:18.844Z,99292.09
2023-05-02T20:29:45.810Z,99287.84
2023-05-02T20:32:12.894Z,99289.28
2023-05-02T20:34:41.197Z,99285.59
2023-05-02T20:37:08.593Z,99279.50
2023-05-02T20:39:36.439Z,99281.69
2023-05-02T20:42:04.391Z,99268.66
2023-05-02T20:44:33.592Z,99268.84
2023-05-02T20:47:00.703Z,99275.47
2023-05-02T20:49:31.770Z,99280.25
2023-05-02T20:52:03.724Z,99287.69
2023-05-02T20:54:30.934Z,99291.09
2023-05-02T20:56:58.150Z,99288.22
2023-05-02T20:59:26.349Z,99292.81
2023-05-02T21:01:53.638Z,99292.81
2023-05-02T21:04:20.966Z,99291.25
2023-05-02T21:06:48.211Z,99288.47
2023-05-02T21:09:17.007Z,99288.91
2023-05-02T21:11:44.296Z,99288.75
2023-05-02T21:14:11.903Z,99304.66
2023-05-02T21:16:39.949Z,99296.72
2023-05-02T21:19:06.934Z,99300.31
2023-05-02T21:21:33.920Z,99299.31
2023-05-02T21:24:01.486Z,99297.00
2023-05-02T21:26:31.149Z,99292.72
2023-05-02T21:28:58.072Z,99296.34
2023-05-02T21:31:25.064Z,99290.84
2023-05-02T21:33:52.267Z,99287.72
2023-05-02T21:36:19.181Z,99283.56
2023-05-02T21:38:46.092Z,99285.38
2023-05-02T21:41:13.067Z,99283.00
2023-05-02T21:43:41.449Z,99276.28
2023-05-02T21:46:10.583Z,99290.19
2023-05-02T21:48:37.630Z,99283.06
2023-05-02T21:51:07.394Z,99285.03
2023-05-02T21:53:34.368Z,99288.81
2023-05-02T21:56:01.316Z,99285.66
2023-05-02T21:58:29.077Z,99284.66
2023-05-02T22:00:57.784Z,99281.09
2023-05-02T22:03:25.307Z,99279.50
2023-05-02T22:05:54.552Z,99275.56
2023-05-02T22:08:22.055Z,99268.44
2023-05-02T22:10:50.898Z,99275.22
2023-05-02T22:13:18.215Z,99281.41
2023-05-02T22:15:46.242Z,99290.72
2023-05-02T22:18:15.437Z,99279.63
2023-05-02T22:20:43.332Z,99293.69
2023-05-02T22:23:11.924Z,99291.69
2023-05-02T22:25:41.053Z,99293.13
2023-05-02T22:28:11.514Z,99294.13
2023-05-02T22:30:39.177Z,99292.56
2023-05-02T22:33:07.533Z,99291.53
2023-05-02T22:35:36.629Z,99291.94
2023-05-02T22:38:04.710Z,99287.78
2023-05-02T22:40:32.251Z,99297.31
2023-05-02T22:43:00.788Z,99293.91
2023-05-02T22:45:28.000Z,99293.34
2023-05-02T22:47:55.823Z,99287.38
2023-05-02T22:50:22.918Z,99291.34
2023-05-02T22:52:51.299Z,99288.75
2023-05-02T22:55:18.222Z,99281.44
2023-05-02T22:57:48.033Z,99291.75
2023-05-02T23:00:15.356Z,99280.28
2023-05-02T23:02:42.405Z,99296.13
2023-05-02T23:05:10.020Z,99288.00
2023-05-02T23:07:37.822Z,99280.47
2023-05-02T23:10:07.957Z,99282.84
2023-05-02T23:12:34.977Z,99277.13
2023-05-02T23:15:01.924Z,99279.09
2023-05-02T23:17:29.018Z,99283.63
2023-05-02T23:19:57.312Z,99266.59
2023-05-02T23:22:24.309Z,99259.28
2023-05-02T23:24:51.394Z,99258.88
2023-05-02T23:27:19.963Z,99260.66
2023-05-02T23:29:49.137Z,99281.06
2023-05-02T23:32:16.399Z,99278.63
2023-05-02T23:34:43.891Z,99274.06
2023-05-02T23:37:11.550Z,99280.03
2023-05-02T23:39:38.804Z,99278.03
2023-05-02T23:42:06.241Z,99269.88
2023-05-02T23:44:34.646Z,99276.59
2023-05-02T23:47:01.976Z,99280.38
2023-05-02T23:49:28.979Z,99284.50
2023-05-02T23:51:55.975Z,99279.16
2023-05-02T23:54:23.075Z,99282.50
2023-05-02T23:56:50.018Z,99281.69
2023-05-02T23:59:16.966Z,99285.25
